Time;durP1;ratioP1;P1;durP2;ratioP2;P2;SDS_P1;SDS_P2;PMS_P1;PMS_P2;Temp;Humidity;BMP_temperature;BMP_pressure;BME280_temperature;BME280_humidity;BME280_pressure;Samples;Min_cycle;Max_cycle;Signal;HPM_P1;HPM_P2
2021/08/08 00:01:21;;;;;;;28.30;11.85;;;25.40;99.90;;;;;;5021758;28;20216;-73
2021/08/08 00:03:48;;;;;;;33.40;11.93;;;25.40;99.90;;;;;;5018955;28;20196;-73
2021/08/08 00:06:14;;;;;;;25.33;10.95;;;25.50;99.90;;;;;;5017635;28;20203;-74
2021/08/08 00:08:40;;;;;;;34.78;11.63;;;25.40;99.90;;;;;;5015885;28;20223;-74
2021/08/08 00:11:07;;;;;;;29.70;11.30;;;25.40;99.90;;;;;;5009993;28;20716;-72
2021/08/08 00:13:34;;;;;;;24.25;11.32;;;25.50;99.90;;;;;;5001855;28;20199;-74
2021/08/08 00:16:01;;;;;;;25.73;11.23;;;25.50;99.90;;;;;;5016431;28;20867;-72
2021/08/08 00:18:27;;;;;;;32.90;11.15;;;25.50;99.90;;;;;;5016125;28;20200;-73
2021/08/08 00:20:54;;;;;;;29.98;12.23;;;25.50;99.90;;;;;;5017256;28;20739;-74
2021/08/08 00:23:20;;;;;;;29.67;11.45;;;25.40;99.90;;;;;;5030406;28;20192;-72
2021/08/08 00:25:48;;;;;;;24.03;10.93;;;25.40;99.90;;;;;;5013471;28;20203;-72
2021/08/08 00:28:14;;;;;;;32.05;12.05;;;25.50;99.90;;;;;;5017036;28;20195;-72
2021/08/08 00:30:40;;;;;;;26.52;11.57;;;25.40;99.90;;;;;;5012594;28;20207;-73
2021/08/08 00:33:07;;;;;;;30.85;11.88;;;25.50;99.90;;;;;;5014918;28;20191;-72
2021/08/08 00:35:34;;;;;;;34.10;11.82;;;25.50;99.90;;;;;;5016680;28;20189;-73
2021/08/08 00:38:00;;;;;;;30.27;12.20;;;25.40;99.90;;;;;;5014941;28;20261;-72
2021/08/08 00:40:28;;;;;;;28.60;11.07;;;25.40;99.90;;;;;;4999497;28;20697;-72
2021/08/08 00:42:54;;;;;;;28.60;11.80;;;25.40;99.90;;;;;;5012308;28;20196;-74
2021/08/08 00:45:22;;;;;;;28.83;11.63;;;25.50;99.90;;;;;;5012160;28;20190;-72
2021/08/08 00:47:48;;;;;;;26.80;12.52;;;25.40;99.90;;;;;;5030755;28;20180;-74
2021/08/08 00:50:16;;;;;;;23.88;11.52;;;25.40;99.90;;;;;;5020153;28;20194;-75
2021/08/08 00:52:45;;;;;;;20.90;11.53;;;25.40;99.90;;;;;;5020172;28;20188;-72
2021/08/08 00:55:12;;;;;;;35.42;12.30;;;25.40;99.90;;;;;;5020106;28;20665;-74
2021/08/08 00:57:39;;;;;;;26.42;11.80;;;25.50;99.90;;;;;;5016115;28;20307;-74
2021/08/08 01:00:08;;;;;;;25.95;12.02;;;25.40;99.90;;;;;;5018148;28;20251;-74
2021/08/08 01:02:47;;;;;;;29.27;12.40;;;25.50;99.90;;;;;;5016252;28;20303;-74
2021/08/08 01:05:24;;;;;;;31.25;12.38;;;25.50;99.90;;;;;;5023401;28;20195;-73
2021/08/08 01:07:59;;;;;;;32.22;13.35;;;25.40;99.90;;;;;;5020812;28;20215;-73
2021/08/08 01:10:26;;;;;;;34.45;13.02;;;25.40;99.90;;;;;;5020992;28;20291;-75
2021/08/08 01:12:55;;;;;;;24.80;12.10;;;25.30;99.90;;;;;;4996605;28;20187;-72
2021/08/08 01:15:23;;;;;;;29.48;12.45;;;25.30;99.90;;;;;;5022764;28;20180;-76
2021/08/08 01:17:51;;;;;;;27.33;11.97;;;25.40;99.90;;;;;;5023167;28;20184;-71
2021/08/08 01:20:18;;;;;;;27.70;13.23;;;25.40;99.90;;;;;;5028534;28;20536;-74
2021/08/08 01:22:53;;;;;;;31.03;12.77;;;25.50;99.90;;;;;;5022081;28;20212;-73
2021/08/08 01:25:23;;;;;;;20.38;11.80;;;25.40;99.90;;;;;;5022085;28;20188;-72
2021/08/08 01:27:53;;;;;;;23.83;11.27;;;25.40;99.90;;;;;;5021554;28;20840;-73
2021/08/08 01:30:20;;;;;;;28.60;13.48;;;25.40;99.90;;;;;;5023737;28;20648;-72
2021/08/08 01:32:47;;;;;;;33.17;13.07;;;25.40;99.90;;;;;;5022189;28;20223;-72
2021/08/08 01:35:13;;;;;;;30.15;13.50;;;25.30;99.90;;;;;;5022609;28;20199;-73
2021/08/08 01:37:40;;;;;;;26.48;12.48;;;25.30;99.90;;;;;;5023600;28;20533;-72
2021/08/08 01:40:15;;;;;;;22.10;12.18;;;25.30;99.90;;;;;;5021434;28;20219;-75
2021/08/08 01:42:45;;;;;;;25.70;12.57;;;25.30;99.90;;;;;;5015072;28;21290;-74
2021/08/08 01:45:15;;;;;;;35.38;12.88;;;25.30;99.90;;;;;;5016430;28;20192;-72
2021/08/08 01:47:50;;;;;;;34.70;13.25;;;25.30;99.90;;;;;;5021128;28;20188;-72
2021/08/08 01:50:20;;;;;;;29.33;12.97;;;25.20;99.90;;;;;;5015308;28;20187;-73
2021/08/08 01:52:48;;;;;;;33.87;14.37;;;25.10;99.90;;;;;;5022408;28;20199;-74
2021/08/08 01:55:18;;;;;;;31.48;13.02;;;25.00;99.90;;;;;;5023352;28;20263;-74
2021/08/08 01:57:44;;;;;;;26.67;12.93;;;25.00;99.90;;;;;;5021459;28;20207;-73
2021/08/08 02:00:12;;;;;;;30.02;13.50;;;24.90;99.90;;;;;;5024686;28;20216;-73
2021/08/08 02:02:50;;;;;;;27.73;12.83;;;24.90;99.90;;;;;;5021584;28;20215;-73
2021/08/08 02:05:19;;;;;;;27.60;13.10;;;25.00;99.90;;;;;;5021928;28;20256;-74
2021/08/08 02:07:45;;;;;;;24.83;13.52;;;25.00;99.90;;;;;;5021591;28;20221;-72
2021/08/08 02:10:12;;;;;;;27.47;12.27;;;25.00;99.90;;;;;;5020934;28;20196;-72
2021/08/08 02:12:38;;;;;;;33.83;13.83;;;25.10;99.90;;;;;;5017656;28;20200;-73
2021/08/08 02:15:06;;;;;;;37.40;14.80;;;25.10;99.90;;;;;;5013546;28;20323;-75
2021/08/08 02:17:33;;;;;;;33.80;12.77;;;25.10;99.90;;;;;;5024798;28;20230;-72
2021/08/08 02:19:59;;;;;;;26.90;12.98;;;25.00;99.90;;;;;;5024013;28;20192;-74
2021/08/08 02:22:25;;;;;;;33.27;13.10;;;24.90;99.90;;;;;;5022555;28;20208;-73
2021/08/08 02:24:53;;;;;;;36.80;14.90;;;25.00;99.90;;;;;;5028336;28;20211;-72
2021/08/08 02:27:19;;;;;;;26.60;13.77;;;25.00;99.90;;;;;;5021034;28;20188;-75
2021/08/08 02:29:46;;;;;;;29.37;14.47;;;25.00;99.90;;;;;;5021944;28;20181;-72
2021/08/08 02:32:15;;;;;;;24.90;12.20;;;25.00;99.90;;;;;;5021020;28;20200;-75
2021/08/08 02:34:42;;;;;;;32.73;14.73;;;25.00;99.90;;;;;;5021775;28;20192;-73
2021/08/08 02:37:09;;;;;;;32.72;14.25;;;25.00;99.90;;;;;;5021206;28;20195;-71
2021/08/08 02:39:36;;;;;;;26.98;12.57;;;25.00;99.90;;;;;;5015550;28;20215;-73
2021/08/08 02:42:03;;;;;;;25.67;13.00;;;25.00;99.90;;;;;;5018810;28;20220;-74
2021/08/08 02:44:30;;;;;;;30.00;13.30;;;25.00;99.90;;;;;;5012726;28;20192;-72
2021/08/08 02:46:57;;;;;;;32.87;13.63;;;24.90;99.90;;;;;;5011510;28;20242;-76
2021/08/08 02:49:23;;;;;;;29.50;13.67;;;24.90;99.90;;;;;;5013667;28;20180;-72
2021/08/08 02:51:49;;;;;;;28.70;12.53;;;24.90;99.90;;;;;;5019298;28;20196;-76
2021/08/08 02:54:16;;;;;;;33.33;14.17;;;24.90;99.90;;;;;;5030581;28;20564;-74
2021/08/08 02:56:43;;;;;;;28.83;13.40;;;24.90;99.90;;;;;;4999558;28;20200;-72
2021/08/08 02:59:09;;;;;;;29.10;12.70;;;24.90;99.90;;;;;;5003795;28;20250;-72
2021/08/08 03:01:38;;;;;;;30.60;14.37;;;24.90;99.90;;;;;;5019097;28;20240;-73
2021/08/08 03:04:04;;;;;;;35.63;13.83;;;24.90;99.90;;;;;;5016828;28;20250;-72
2021/08/08 03:06:32;;;;;;;21.60;12.70;;;24.90;99.90;;;;;;5020760;28;20176;-73
2021/08/08 03:08:58;;;;;;;28.83;12.27;;;25.00;99.90;;;;;;5017246;28;20185;-73
2021/08/08 03:11:25;;;;;;;28.83;13.10;;;25.00;99.90;;;;;;5016922;28;20250;-73
2021/08/08 03:13:51;;;;;;;31.98;13.40;;;25.00;99.90;;;;;;5019942;28;20262;-72
2021/08/08 03:16:18;;;;;;;43.65;14.73;;;25.10;99.90;;;;;;5011513;28;20207;-72
2021/08/08 03:18:44;;;;;;;36.75;14.73;;;25.00;99.90;;;;;;5017481;28;20275;-73
2021/08/08 03:21:11;;;;;;;29.17;13.53;;;25.00;99.90;;;;;;5021133;28;20922;-71
2021/08/08 03:23:37;;;;;;;25.88;13.30;;;25.00;99.90;;;;;;5018003;28;20200;-72
2021/08/08 03:26:06;;;;;;;34.40;13.32;;;24.90;99.90;;;;;;5014789;28;20853;-73
2021/08/08 03:28:33;;;;;;;28.00;13.93;;;24.80;99.90;;;;;;5003177;28;20696;-73
2021/08/08 03:30:59;;;;;;;25.93;13.20;;;24.80;99.90;;;;;;5020399;28;20564;-70
2021/08/08 03:33:25;;;;;;;39.47;13.63;;;24.80;99.90;;;;;;5015644;28;20189;-71
2021/08/08 03:35:51;;;;;;;31.13;14.07;;;24.80;99.90;;;;;;5012582;28;20192;-71
2021/08/08 03:38:18;;;;;;;25.48;13.85;;;24.90;99.90;;;;;;5010956;28;20192;-71
2021/08/08 03:40:44;;;;;;;32.30;13.57;;;24.90;99.90;;;;;;5012355;28;20212;-72
2021/08/08 03:43:10;;;;;;;35.97;14.40;;;25.00;99.90;;;;;;5026314;28;20203;-74
2021/08/08 03:45:37;;;;;;;29.67;14.80;;;25.00;99.90;;;;;;5009571;28;20200;-73
2021/08/08 03:48:03;;;;;;;36.10;13.47;;;25.00;99.90;;;;;;5008542;28;20267;-74
2021/08/08 03:50:30;;;;;;;33.07;13.50;;;25.10;99.90;;;;;;5013372;28;20596;-72
2021/08/08 03:52:56;;;;;;;33.37;14.23;;;25.10;99.90;;;;;;5014994;28;20810;-70
2021/08/08 03:55:22;;;;;;;29.48;13.52;;;25.10;99.90;;;;;;5011153;28;20272;-72
2021/08/08 03:57:49;;;;;;;32.33;13.63;;;25.00;99.90;;;;;;5012637;28;20193;-74
2021/08/08 04:00:15;;;;;;;28.88;14.60;;;25.00;99.90;;;;;;5013987;28;20307;-75
2021/08/08 04:02:41;;;;;;;30.80;14.30;;;25.10;99.90;;;;;;5011609;28;20280;-71
2021/08/08 04:05:08;;;;;;;29.13;13.90;;;25.10;99.90;;;;;;5027960;28;20238;-73
2021/08/08 04:07:35;;;;;;;30.10;14.73;;;25.10;99.90;;;;;;5011836;28;20189;-76
2021/08/08 04:10:02;;;;;;;33.05;14.25;;;25.10;99.90;;;;;;5009654;28;20188;-75
2021/08/08 04:12:28;;;;;;;26.60;13.17;;;25.10;99.90;;;;;;5008921;28;20311;-73
2021/08/08 04:14:54;;;;;;;30.70;14.17;;;25.10;99.90;;;;;;5017465;28;20196;-74
2021/08/08 04:17:20;;;;;;;30.83;14.20;;;25.10;99.90;;;;;;5014259;28;20184;-71
2021/08/08 04:19:47;;;;;;;26.65;14.10;;;25.10;99.90;;;;;;5013486;28;20766;-71
2021/08/08 04:22:16;;;;;;;30.40;14.23;;;25.10;99.90;;;;;;5009213;28;20251;-73
2021/08/08 04:24:42;;;;;;;29.43;14.07;;;25.10;99.90;;;;;;5011656;28;20195;-71
2021/08/08 04:27:08;;;;;;;30.38;14.13;;;25.10;99.90;;;;;;5010484;28;20275;-70
2021/08/08 04:29:35;;;;;;;23.73;13.32;;;25.10;99.90;;;;;;5023003;28;20191;-73
2021/08/08 04:32:01;;;;;;;24.90;14.30;;;25.20;99.90;;;;;;5014931;28;20280;-70
2021/08/08 04:34:30;;;;;;;27.27;13.37;;;25.20;99.90;;;;;;5011597;28;20386;-71
2021/08/08 04:36:56;;;;;;;34.38;13.52;;;25.20;99.90;;;;;;5010877;28;20271;-73
2021/08/08 04:39:22;;;;;;;26.95;14.88;;;25.20;99.90;;;;;;5016668;28;20283;-72
2021/08/08 04:41:49;;;;;;;27.83;13.85;;;25.30;99.90;;;;;;5003710;28;20208;-73
2021/08/08 04:44:15;;;;;;;38.88;16.08;;;25.30;99.90;;;;;;5015163;28;20704;-73
2021/08/08 04:46:41;;;;;;;40.63;14.90;;;25.30;99.90;;;;;;5015001;28;20509;-70
2021/08/08 04:49:07;;;;;;;37.80;14.90;;;25.30;99.90;;;;;;4993878;28;20275;-73
2021/08/08 04:51:33;;;;;;;31.00;14.60;;;25.30;99.90;;;;;;5012498;28;20199;-72
2021/08/08 04:54:00;;;;;;;40.10;14.80;;;25.30;99.90;;;;;;5011405;28;20197;-74
2021/08/08 04:56:26;;;;;;;35.58;15.07;;;25.40;99.90;;;;;;5014316;28;20197;-73
2021/08/08 04:58:52;;;;;;;39.70;16.25;;;25.40;99.90;;;;;;5018865;28;20210;-74
2021/08/08 05:01:18;;;;;;;36.70;14.10;;;25.40;99.90;;;;;;5010954;28;20212;-73
2021/08/08 05:03:44;;;;;;;32.65;15.75;;;25.40;99.90;;;;;;5012313;28;20204;-72
2021/08/08 05:06:11;;;;;;;32.83;14.97;;;25.40;99.90;;;;;;5010118;28;20732;-72
2021/08/08 05:08:37;;;;;;;37.50;15.70;;;25.40;99.90;;;;;;5019543;28;20226;-74
2021/08/08 05:11:03;;;;;;;25.90;13.83;;;25.50;99.90;;;;;;5016097;28;20203;-71
2021/08/08 05:13:30;;;;;;;34.85;15.60;;;25.50;99.90;;;;;;5014708;28;20188;-70
2021/08/08 05:15:57;;;;;;;37.27;13.40;;;25.60;99.90;;;;;;5015163;28;20215;-70
2021/08/08 05:18:23;;;;;;;33.55;14.48;;;25.70;99.90;;;;;;4995984;28;20197;-71
2021/08/08 05:20:50;;;;;;;30.67;13.60;;;25.80;99.90;;;;;;5008595;28;20195;-71
2021/08/08 05:23:16;;;;;;;30.48;14.02;;;25.80;99.90;;;;;;5012243;28;20603;-71
2021/08/08 05:25:43;;;;;;;28.25;13.48;;;25.90;99.90;;;;;;5013760;28;20184;-74
2021/08/08 05:28:09;;;;;;;32.80;13.77;;;25.90;99.90;;;;;;5014239;28;20215;-72
2021/08/08 05:30:36;;;;;;;27.15;13.15;;;25.90;99.90;;;;;;5024461;28;20184;-72
2021/08/08 05:33:02;;;;;;;26.25;13.38;;;26.00;99.90;;;;;;5012929;28;20192;-75
2021/08/08 05:35:28;;;;;;;30.90;13.43;;;26.10;99.90;;;;;;5013097;28;20204;-72
2021/08/08 05:37:54;;;;;;;26.17;12.07;;;26.20;99.90;;;;;;5012718;28;20242;-76
2021/08/08 05:40:21;;;;;;;24.35;12.18;;;26.20;99.90;;;;;;5011146;28;20196;-74
2021/08/08 05:42:51;;;;;;;27.48;12.68;;;26.20;99.90;;;;;;5012631;28;20208;-75
2021/08/08 05:45:21;;;;;;;28.33;12.63;;;26.20;99.90;;;;;;5020319;28;20266;-75
2021/08/08 05:47:48;;;;;;;29.45;10.90;;;26.20;99.90;;;;;;5012172;28;21018;-71
2021/08/08 05:50:14;;;;;;;21.60;11.77;;;26.20;99.90;;;;;;5009531;28;20185;-74
2021/08/08 05:52:47;;;;;;;28.63;11.68;;;26.30;99.90;;;;;;5009859;28;20192;-72
2021/08/08 05:55:13;;;;;;;24.23;11.07;;;26.30;99.90;;;;;;5014385;28;20215;-72
2021/08/08 05:57:39;;;;;;;25.10;11.35;;;26.30;99.90;;;;;;5014123;28;20207;-73
2021/08/08 06:00:07;;;;;;;26.38;11.68;;;26.40;99.90;;;;;;5011512;28;20194;-74
2021/08/08 06:02:34;;;;;;;20.20;9.15;;;26.40;99.90;;;;;;5017869;28;20327;-73
2021/08/08 06:05:00;;;;;;;22.80;10.75;;;26.40;99.90;;;;;;4996805;28;20235;-73
2021/08/08 06:07:27;;;;;;;27.48;10.15;;;26.40;99.90;;;;;;5010606;28;20196;-73
2021/08/08 06:09:53;;;;;;;18.73;9.32;;;26.50;99.90;;;;;;5014784;28;20196;-72
2021/08/08 06:12:20;;;;;;;20.02;9.95;;;26.50;99.90;;;;;;5018638;28;20196;-74
2021/08/08 06:14:46;;;;;;;22.60;9.88;;;26.60;99.90;;;;;;5006553;28;20189;-73
2021/08/08 06:17:12;;;;;;;18.67;9.60;;;26.60;99.90;;;;;;5014036;28;20199;-76
2021/08/08 06:19:38;;;;;;;20.40;8.77;;;26.60;99.90;;;;;;5017566;28;20200;-76
2021/08/08 06:22:05;;;;;;;20.63;9.20;;;26.60;99.90;;;;;;4992723;28;20213;-70
2021/08/08 06:24:31;;;;;;;20.83;9.38;;;26.70;99.90;;;;;;5014989;28;20701;-73
2021/08/08 06:26:57;;;;;;;24.80;9.40;;;26.70;99.90;;;;;;5013592;28;20197;-71
2021/08/08 06:29:23;;;;;;;16.50;8.45;;;26.90;99.90;;;;;;5018959;28;20192;-74
2021/08/08 06:31:50;;;;;;;20.63;8.77;;;26.90;99.90;;;;;;5011711;28;20200;-71
2021/08/08 06:34:16;;;;;;;24.40;9.18;;;27.10;99.90;;;;;;5019994;28;21019;-72
2021/08/08 06:36:43;;;;;;;19.17;9.40;;;27.10;99.90;;;;;;5018692;28;20192;-71
2021/08/08 06:39:09;;;;;;;18.90;8.73;;;27.10;99.90;;;;;;5013772;28;20203;-72
2021/08/08 06:41:35;;;;;;;18.65;8.52;;;27.20;99.90;;;;;;5015210;28;20220;-73
2021/08/08 06:44:02;;;;;;;24.52;8.75;;;27.30;99.90;;;;;;5014792;28;20196;-75
2021/08/08 06:46:28;;;;;;;22.92;9.30;;;27.40;99.90;;;;;;5012995;28;20189;-71
2021/08/08 06:48:55;;;;;;;19.08;9.20;;;27.40;99.90;;;;;;5012958;28;20192;-70
2021/08/08 06:51:21;;;;;;;23.92;9.55;;;27.50;99.90;;;;;;4995758;28;20215;-74
2021/08/08 06:53:47;;;;;;;20.73;9.23;;;27.60;99.90;;;;;;5009485;28;20214;-73
2021/08/08 06:56:13;;;;;;;15.52;8.27;;;27.60;99.90;;;;;;5015153;28;20227;-74
2021/08/08 06:58:40;;;;;;;22.08;8.63;;;27.50;99.90;;;;;;5001924;28;20196;-72
2021/08/08 07:01:06;;;;;;;19.88;8.27;;;27.70;99.90;;;;;;5011959;28;20200;-75
2021/08/08 07:03:32;;;;;;;21.52;8.57;;;27.70;99.90;;;;;;5012887;28;20207;-71
2021/08/08 07:05:58;;;;;;;16.67;7.63;;;27.70;99.90;;;;;;5024840;28;20240;-73
2021/08/08 07:08:25;;;;;;;14.38;7.85;;;27.80;99.90;;;;;;4993581;28;20180;-72
2021/08/08 07:10:51;;;;;;;19.75;8.90;;;27.80;99.90;;;;;;5012790;28;20208;-74
2021/08/08 07:13:17;;;;;;;20.58;7.63;;;27.80;99.90;;;;;;5009539;28;20185;-73
2021/08/08 07:15:44;;;;;;;20.13;8.02;;;28.00;99.90;;;;;;5015740;28;20588;-72
2021/08/08 07:18:10;;;;;;;17.20;7.82;;;28.00;99.90;;;;;;5009661;28;20308;-73
2021/08/08 07:20:36;;;;;;;21.40;7.78;;;28.10;99.90;;;;;;5013636;28;20192;-73
2021/08/08 07:23:03;;;;;;;16.30;8.50;;;28.40;99.90;;;;;;5002752;28;20278;-75
2021/08/08 07:25:30;;;;;;;20.08;8.75;;;28.50;99.90;;;;;;5014412;28;20250;-72
2021/08/08 07:27:56;;;;;;;20.20;9.63;;;28.60;99.90;;;;;;5011463;28;20192;-74
2021/08/08 07:30:24;;;;;;;17.40;9.25;;;28.60;99.90;;;;;;5011770;28;20211;-72
2021/08/08 07:32:52;;;;;;;19.55;8.88;;;28.70;99.90;;;;;;5005344;28;20752;-73
2021/08/08 07:35:19;;;;;;;16.05;7.80;;;28.70;99.90;;;;;;5016882;28;20672;-74
2021/08/08 07:37:45;;;;;;;23.40;9.05;;;28.50;99.90;;;;;;5022750;28;20180;-75
2021/08/08 07:40:12;;;;;;;16.48;8.60;;;28.60;99.90;;;;;;5020011;28;20846;-75
2021/08/08 07:42:38;;;;;;;16.60;8.05;;;28.80;99.90;;;;;;5020094;28;20215;-74
2021/08/08 07:45:06;;;;;;;19.02;8.82;;;29.00;99.90;;;;;;5020644;28;20192;-72
2021/08/08 07:47:32;;;;;;;21.02;9.02;;;29.10;99.90;;;;;;5020546;28;20188;-71
2021/08/08 07:49:58;;;;;;;21.85;8.80;;;29.20;99.90;;;;;;5019965;28;20223;-75
2021/08/08 07:52:25;;;;;;;22.58;9.25;;;29.30;99.90;;;;;;5017896;28;20200;-75
2021/08/08 07:54:51;;;;;;;25.17;9.77;;;29.40;99.90;;;;;;5011603;28;20187;-73
2021/08/08 07:57:17;;;;;;;22.75;9.38;;;29.60;99.90;;;;;;5027902;28;20199;-74
2021/08/08 07:59:44;;;;;;;25.73;8.85;;;29.50;99.90;;;;;;5019150;28;20195;-71
2021/08/08 08:02:10;;;;;;;19.73;8.75;;;29.50;99.90;;;;;;5021786;28;20295;-75
2021/08/08 08:04:36;;;;;;;21.17;9.07;;;29.50;99.90;;;;;;5007083;28;20188;-73
2021/08/08 08:07:03;;;;;;;23.98;8.77;;;29.50;99.90;;;;;;5023876;28;20878;-74
2021/08/08 08:09:29;;;;;;;15.75;8.27;;;29.50;99.90;;;;;;5020658;28;20192;-72
2021/08/08 08:11:55;;;;;;;19.48;9.15;;;29.60;99.90;;;;;;5019625;28;20214;-74
2021/08/08 08:14:22;;;;;;;18.75;8.27;;;29.60;99.90;;;;;;5023799;28;20185;-73
2021/08/08 08:16:48;;;;;;;20.23;8.10;;;29.70;99.90;;;;;;5015836;28;20193;-74
2021/08/08 08:19:15;;;;;;;17.80;8.25;;;29.80;99.90;;;;;;5019612;28;20192;-73
2021/08/08 08:21:41;;;;;;;22.52;8.13;;;29.70;99.90;;;;;;5025681;28;20219;-75
2021/08/08 08:24:08;;;;;;;24.00;8.52;;;29.70;99.90;;;;;;5013868;28;20184;-74
2021/08/08 08:26:35;;;;;;;24.30;9.38;;;29.70;99.90;;;;;;5012366;28;20181;-75
2021/08/08 08:29:01;;;;;;;20.42;8.80;;;29.90;99.90;;;;;;5022287;28;20188;-75
2021/08/08 08:31:27;;;;;;;25.85;9.48;;;29.90;99.90;;;;;;5031182;28;20265;-75
2021/08/08 08:33:57;;;;;;;19.67;8.73;;;29.90;99.90;;;;;;5017067;28;20265;-75
2021/08/08 08:36:24;;;;;;;18.30;8.88;;;29.90;99.90;;;;;;5022619;28;20643;-76
2021/08/08 08:38:50;;;;;;;23.17;8.38;;;30.00;99.90;;;;;;5024250;28;20704;-75
2021/08/08 08:41:18;;;;;;;25.90;9.20;;;30.10;99.90;;;;;;5018259;28;20240;-75
2021/08/08 08:43:45;;;;;;;23.45;8.63;;;30.10;99.90;;;;;;5025535;28;20184;-76
2021/08/08 08:46:14;;;;;;;24.23;9.20;;;30.30;99.90;;;;;;5019349;28;20181;-75
2021/08/08 08:48:43;;;;;;;25.52;9.02;;;30.20;99.90;;;;;;5029844;28;20211;-75
2021/08/08 08:51:14;;;;;;;20.35;9.75;;;30.20;99.90;;;;;;5029252;28;20200;-74
2021/08/08 08:53:43;;;;;;;28.35;9.38;;;30.20;99.90;;;;;;5021464;28;20199;-74
2021/08/08 08:56:10;;;;;;;20.05;8.68;;;30.30;99.90;;;;;;4994578;28;20189;-74
2021/08/08 08:58:37;;;;;;;18.85;9.55;;;30.20;99.90;;;;;;5020348;28;20188;-74
2021/08/08 09:01:03;;;;;;;18.58;8.95;;;30.20;99.90;;;;;;5004370;28;20223;-74
2021/08/08 09:03:29;;;;;;;22.02;8.75;;;30.40;99.90;;;;;;5020303;28;20197;-74
2021/08/08 09:05:56;;;;;;;24.45;8.80;;;30.40;99.90;;;;;;5030011;28;20267;-75
2021/08/08 09:08:22;;;;;;;14.50;8.27;;;30.60;99.90;;;;;;5019087;28;20203;-75
2021/08/08 09:11:07;;;;;;;25.55;8.60;;;30.70;99.90;;;;;;5020215;28;20192;-75
2021/08/08 09:13:48;;;;;;;17.88;8.30;;;30.70;99.90;;;;;;5017845;28;20247;-75
2021/08/08 09:16:15;;;;;;;19.17;8.00;;;30.70;99.90;;;;;;5018391;28;20299;-75
2021/08/08 09:18:54;;;;;;;21.75;8.05;;;30.70;99.90;;;;;;5021978;28;20541;-75
2021/08/08 09:21:22;;;;;;;18.35;6.95;;;31.00;99.90;;;;;;5001361;28;20262;-76
2021/08/08 09:24:01;;;;;;;19.77;7.80;;;31.10;99.90;;;;;;5021285;28;20199;-75
2021/08/08 09:26:38;;;;;;;24.90;7.85;;;31.00;99.90;;;;;;5016664;28;20530;-75
2021/08/08 09:29:15;;;;;;;22.42;8.07;;;31.00;99.90;;;;;;5020536;28;20192;-74
2021/08/08 09:31:47;;;;;;;22.85;8.32;;;31.10;99.90;;;;;;5027470;28;20192;-74
2021/08/08 09:34:36;;;;;;;18.98;7.85;;;31.20;99.90;;;;;;5027132;28;20321;-74
2021/08/08 09:37:23;;;;;;;23.58;7.70;;;31.30;99.90;;;;;;5004931;28;20633;-74
2021/08/08 09:39:52;;;;;;;19.73;7.40;;;31.40;99.90;;;;;;5024445;28;20188;-73
2021/08/08 09:42:26;;;;;;;20.70;7.57;;;31.40;99.90;;;;;;5023487;28;20223;-75
2021/08/08 09:44:59;;;;;;;11.10;7.32;;;31.80;99.90;;;;;;5026126;28;20836;-73
2021/08/08 09:47:53;;;;;;;18.42;7.35;;;32.20;99.90;;;;;;5021424;28;20181;-75
2021/08/08 09:50:23;;;;;;;18.52;7.20;;;32.30;99.90;;;;;;5021684;28;20267;-73
2021/08/08 09:52:56;;;;;;;19.65;7.63;;;32.30;99.90;;;;;;5027256;28;20192;-76
2021/08/08 09:55:33;;;;;;;19.10;7.13;;;32.30;99.90;;;;;;5011155;28;20188;-73
2021/08/08 09:58:01;;;;;;;15.48;7.25;;;32.30;99.90;;;;;;5022934;28;20203;-75
2021/08/08 10:00:40;;;;;;;21.15;6.93;;;32.50;99.90;;;;;;5027326;28;20609;-76
2021/08/08 10:03:11;;;;;;;22.02;6.97;;;32.90;99.90;;;;;;5018135;28;20220;-73
2021/08/08 10:05:40;;;;;;;15.73;7.30;;;32.60;99.90;;;;;;5024144;28;20189;-73
2021/08/08 10:08:09;;;;;;;18.98;8.02;;;32.50;99.90;;;;;;5024915;28;20202;-74
2021/08/08 10:10:38;;;;;;;14.68;6.53;;;32.40;99.90;;;;;;5026730;28;20188;-74
2021/08/08 10:13:38;;;;;;;19.17;7.22;;;32.40;99.90;;;;;;5037538;28;20223;-73
2021/08/08 10:16:13;;;;;;;20.15;7.25;;;32.50;99.90;;;;;;5020332;28;20240;-73
2021/08/08 10:18:56;;;;;;;12.23;6.60;;;32.80;99.90;;;;;;5021929;28;20241;-73
2021/08/08 10:21:24;;;;;;;14.15;6.97;;;32.70;99.90;;;;;;5023398;28;20282;-73
2021/08/08 10:23:56;;;;;;;23.58;6.35;;;32.60;99.90;;;;;;5027362;28;20241;-74
2021/08/08 10:26:22;;;;;;;13.85;6.95;;;32.70;99.90;;;;;;5023900;28;20196;-73
2021/08/08 10:28:51;;;;;;;21.02;6.68;;;32.80;99.90;;;;;;5021404;28;20192;-73
2021/08/08 10:31:22;;;;;;;18.75;6.90;;;33.00;99.90;;;;;;5024890;28;20922;-73
2021/08/08 10:33:53;;;;;;;19.67;6.95;;;33.90;99.90;;;;;;5027664;28;20192;-73
2021/08/08 10:36:28;;;;;;;15.40;6.32;;;35.90;99.90;;;;;;5022897;28;20192;-73
2021/08/08 10:39:11;;;;;;;32.67;7.28;;;37.50;97.20;;;;;;5007188;28;20194;-73
2021/08/08 10:41:41;;;;;;;19.35;6.53;;;37.10;95.70;;;;;;5022203;28;20212;-73
2021/08/08 10:44:17;;;;;;;19.10;6.30;;;35.70;96.60;;;;;;5025634;28;20789;-73
2021/08/08 10:46:49;;;;;;;13.00;5.97;;;34.60;98.30;;;;;;5022543;28;20203;-73
2021/08/08 10:49:28;;;;;;;12.23;6.32;;;33.90;99.10;;;;;;5008320;28;20195;-74
2021/08/08 10:52:05;;;;;;;17.88;7.35;;;33.50;99.50;;;;;;5026602;28;20199;-74
2021/08/08 10:54:48;;;;;;;16.63;6.75;;;33.10;99.90;;;;;;5025629;28;20183;-74
2021/08/08 10:57:19;;;;;;;13.23;6.45;;;33.20;99.90;;;;;;5023447;28;20207;-74
2021/08/08 10:59:51;;;;;;;13.77;6.78;;;33.10;99.90;;;;;;5019780;28;20192;-74
2021/08/08 11:02:28;;;;;;;17.02;5.68;;;32.90;99.90;;;;;;5026304;28;20200;-74
2021/08/08 11:04:55;;;;;;;12.50;6.45;;;32.90;99.90;;;;;;5026507;28;20825;-73
2021/08/08 11:07:29;;;;;;;16.73;5.95;;;32.90;99.90;;;;;;5024369;28;22013;-73
2021/08/08 11:09:56;;;;;;;17.38;6.35;;;32.80;99.90;;;;;;5020806;28;21128;-73
2021/08/08 11:12:55;;;;;;;19.13;6.93;;;32.70;99.90;;;;;;5022090;28;20191;-73
2021/08/08 11:15:35;;;;;;;20.90;6.72;;;32.80;99.90;;;;;;5025980;28;20706;-73
2021/08/08 11:18:02;;;;;;;18.73;7.15;;;32.90;99.90;;;;;;5025961;28;20191;-73
2021/08/08 11:20:31;;;;;;;18.02;7.30;;;32.70;99.90;;;;;;5027133;28;20199;-74
2021/08/08 11:23:02;;;;;;;15.30;6.38;;;32.70;99.90;;;;;;5009717;28;20211;-75
2021/08/08 11:25:50;;;;;;;12.32;6.00;;;32.80;99.90;;;;;;5026416;28;20758;-75
2021/08/08 11:28:18;;;;;;;13.52;6.55;;;32.80;99.90;;;;;;5036027;28;20194;-73
2021/08/08 11:30:46;;;;;;;12.77;6.55;;;32.80;99.90;;;;;;5003854;28;20184;-72
2021/08/08 11:33:15;;;;;;;17.30;6.60;;;32.80;99.90;;;;;;5027869;28;20270;-74
2021/08/08 11:35:43;;;;;;;21.58;6.82;;;32.60;99.90;;;;;;5009330;28;20217;-74
2021/08/08 11:38:20;;;;;;;17.58;6.90;;;32.60;99.90;;;;;;5026744;28;20199;-74
2021/08/08 11:40:48;;;;;;;15.98;7.50;;;32.70;99.90;;;;;;5007154;28;20185;-74
2021/08/08 11:43:16;;;;;;;16.08;6.65;;;32.60;99.90;;;;;;5031948;28;20352;-75
2021/08/08 11:45:45;;;;;;;15.43;7.13;;;32.50;99.90;;;;;;5003753;28;20187;-74
2021/08/08 11:48:21;;;;;;;17.35;6.32;;;32.60;99.90;;;;;;5009969;28;20207;-74
2021/08/08 11:51:05;;;;;;;16.00;6.45;;;32.50;99.90;;;;;;5026632;28;20215;-75
2021/08/08 11:53:38;;;;;;;15.52;7.00;;;32.30;99.90;;;;;;5020524;28;20184;-74
2021/08/08 11:56:24;;;;;;;17.67;7.28;;;32.20;99.90;;;;;;5025950;28;20180;-74
2021/08/08 11:58:54;;;;;;;19.73;7.50;;;32.40;99.90;;;;;;5019439;28;20212;-75
2021/08/08 12:01:27;;;;;;;16.90;6.88;;;32.30;99.90;;;;;;5019473;28;20212;-75
2021/08/08 12:04:07;;;;;;;17.13;6.72;;;32.30;99.90;;;;;;5015187;28;20204;-75
2021/08/08 12:06:35;;;;;;;21.13;7.85;;;32.30;99.90;;;;;;5023784;28;20195;-75
2021/08/08 12:09:02;;;;;;;20.08;7.65;;;32.30;99.90;;;;;;5025535;28;20522;-75
2021/08/08 12:11:44;;;;;;;18.20;7.90;;;32.40;99.90;;;;;;5026250;28;20808;-75
2021/08/08 12:14:10;;;;;;;24.63;8.20;;;32.40;99.90;;;;;;5023812;28;20192;-75
2021/08/08 12:16:39;;;;;;;18.05;7.68;;;32.20;99.90;;;;;;5019913;28;20279;-75
2021/08/08 12:19:08;;;;;;;21.58;8.15;;;32.10;99.90;;;;;;5027493;28;20632;-75
2021/08/08 12:21:40;;;;;;;18.60;7.65;;;32.10;99.90;;;;;;5034446;28;20212;-75
2021/08/08 12:24:12;;;;;;;25.17;8.05;;;31.90;99.90;;;;;;5024041;28;20529;-75
2021/08/08 12:26:48;;;;;;;18.08;7.63;;;32.10;99.90;;;;;;5022876;28;20219;-75
2021/08/08 12:29:14;;;;;;;18.50;7.80;;;32.10;99.90;;;;;;5025405;28;20184;-74
2021/08/08 12:31:42;;;;;;;17.02;7.30;;;32.10;99.90;;;;;;5023609;28;20667;-75
2021/08/08 12:34:10;;;;;;;18.65;7.18;;;32.10;99.90;;;;;;5022534;28;20240;-75
2021/08/08 12:36:42;;;;;;;19.85;7.50;;;32.10;99.90;;;;;;5027705;28;20267;-75
2021/08/08 12:39:11;;;;;;;17.33;8.25;;;31.90;99.90;;;;;;5022628;28;20308;-74
2021/08/08 12:41:43;;;;;;;21.02;8.38;;;31.90;99.90;;;;;;5005587;28;20208;-75